createdAt,value
2017-01-09T00:00:46.935Z,13.51
2017-01-09T00:01:46.870Z,13.32
2017-01-09T00:02:46.809Z,13.42
2017-01-09T00:03:46.746Z,13.23
2017-01-09T00:04:46.690Z,13.32
2017-01-09T00:05:46.622Z,13.23
2017-01-09T00:06:46.561Z,13.23
2017-01-09T00:07:46.502Z,13.13
2017-01-09T00:08:46.436Z,13.23
2017-01-09T00:09:46.376Z,13.32
2017-01-09T00:10:46.315Z,13.23
2017-01-09T00:11:46.252Z,13.23
2017-01-09T00:12:46.188Z,13.23
2017-01-09T00:13:46.127Z,13.23
2017-01-09T00:14:46.064Z,13.32
2017-01-09T00:15:46.002Z,13.23
2017-01-09T00:16:45.942Z,13.13
2017-01-09T00:17:45.881Z,13.13
2017-01-09T00:18:45.817Z,13.13
2017-01-09T00:19:45.755Z,13.13
2017-01-09T00:20:45.694Z,13.23
2017-01-09T00:21:45.630Z,13.03
2017-01-09T00:22:45.569Z,13.23
2017-01-09T00:23:45.506Z,13.03
2017-01-09T00:24:45.445Z,13.23
2017-01-09T00:25:45.382Z,12.84
2017-01-09T00:26:45.321Z,12.84
2017-01-09T00:27:45.262Z,13.03
2017-01-09T00:28:45.196Z,13.13
2017-01-09T00:29:45.145Z,12.93
2017-01-09T00:30:45.073Z,12.74
2017-01-09T00:31:45.012Z,12.93
2017-01-09T00:32:44.951Z,12.93
2017-01-09T00:33:44.884Z,12.84
2017-01-09T00:34:44.826Z,12.84
2017-01-09T00:35:44.761Z,13.03
2017-01-09T00:36:44.700Z,12.65
2017-01-09T00:37:44.638Z,13.03
2017-01-09T00:38:44.574Z,12.74
2017-01-09T00:39:44.514Z,12.93
2017-01-09T00:40:44.454Z,12.74
2017-01-09T00:41:44.390Z,12.74
2017-01-09T00:42:44.327Z,12.55
2017-01-09T00:43:44.267Z,12.93
2017-01-09T00:44:44.205Z,12.74
2017-01-09T00:45:44.141Z,12.93
2017-01-09T00:46:44.083Z,12.93
2017-01-09T00:47:44.017Z,12.93
2017-01-09T00:48:43.956Z,13.03
2017-01-09T00:49:43.894Z,13.23
2017-01-09T00:50:43.831Z,12.65
2017-01-09T00:51:43.770Z,12.55
2017-01-09T00:52:43.709Z,12.93
2017-01-09T00:53:43.647Z,12.74
2017-01-09T00:54:43.580Z,13.03
2017-01-09T00:55:43.671Z,13.32
2017-01-09T00:56:43.460Z,13.03
2017-01-09T00:57:43.400Z,12.84
2017-01-09T00:58:43.333Z,12.93
2017-01-09T00:59:43.278Z,12.74
2017-01-09T01:01:28.170Z,12.84
2017-01-09T01:02:13.221Z,12.74
2017-01-09T01:03:13.157Z,12.84
2017-01-09T01:04:13.095Z,12.84
2017-01-09T01:05:13.032Z,12.93
2017-01-09T01:06:12.969Z,13.13
2017-01-09T01:07:12.906Z,13.61
2017-01-09T01:08:12.846Z,12.84
2017-01-09T01:09:12.782Z,12.84
2017-01-09T01:10:12.722Z,13.03
2017-01-09T01:11:12.659Z,12.93
2017-01-09T01:12:12.596Z,13.61
2017-01-09T01:13:12.533Z,13.23
2017-01-09T01:14:12.477Z,13.32
2017-01-09T01:15:12.437Z,13.23
2017-01-09T01:16:12.348Z,13.32
2017-01-09T01:17:12.284Z,13.23
2017-01-09T01:18:12.227Z,13.23
2017-01-09T01:19:12.161Z,13.13
2017-01-09T01:20:12.105Z,13.03
2017-01-09T01:21:12.036Z,13.42
2017-01-09T01:22:11.976Z,13.13
2017-01-09T01:23:11.915Z,13.23
2017-01-09T01:24:11.848Z,13.03
2017-01-09T01:25:11.791Z,13.03
2017-01-09T01:26:11.727Z,13.23
2017-01-09T01:27:11.662Z,13.13
2017-01-09T01:28:11.608Z,13.23
2017-01-09T01:29:11.537Z,13.13
2017-01-09T01:30:11.476Z,13.13
2017-01-09T01:31:11.415Z,13.23
2017-01-09T01:32:11.355Z,13.23
2017-01-09T01:33:11.291Z,13.23
2017-01-09T01:34:11.226Z,13.23
2017-01-09T01:35:11.166Z,13.32
2017-01-09T01:36:11.105Z,13.03
2017-01-09T01:37:11.041Z,13.23
2017-01-09T01:38:10.978Z,13.03
2017-01-09T01:39:10.948Z,12.93
2017-01-09T01:40:10.855Z,13.13
2017-01-09T01:41:10.799Z,13.13
2017-01-09T01:42:10.731Z,13.03
2017-01-09T01:43:10.669Z,13.13
2017-01-09T01:44:10.606Z,13.13
2017-01-09T01:45:10.546Z,12.93
2017-01-09T01:46:10.487Z,13.13
2017-01-09T01:47:10.423Z,13.03
2017-01-09T01:48:10.356Z,12.93
2017-01-09T01:49:10.296Z,13.03
2017-01-09T01:50:10.233Z,13.03
2017-01-09T01:51:10.171Z,13.03
2017-01-09T01:52:10.110Z,13.13
2017-01-09T01:53:10.048Z,13.03
2017-01-09T01:54:09.985Z,13.03
2017-01-09T01:55:09.923Z,13.03
2017-01-09T01:56:10.250Z,13.13
2017-01-09T01:57:09.798Z,13.03
2017-01-09T01:58:09.736Z,13.13
2017-01-09T01:59:09.675Z,13.13
2017-01-09T02:00:09.614Z,13.03
2017-01-09T02:01:09.551Z,13.03
2017-01-09T02:02:09.490Z,13.03
2017-01-09T02:03:09.438Z,13.03
2017-01-09T02:04:09.368Z,13.03
2017-01-09T02:05:09.302Z,13.03
2017-01-09T02:06:09.238Z,13.03
2017-01-09T02:07:09.179Z,13.03
2017-01-09T02:08:09.120Z,12.93
2017-01-09T02:09:09.055Z,13.03
2017-01-09T02:10:08.990Z,13.03
2017-01-09T02:11:08.931Z,13.03
2017-01-09T02:12:08.874Z,13.03
2017-01-09T02:13:08.818Z,13.03
2017-01-09T02:14:08.744Z,13.03
2017-01-09T02:15:08.682Z,13.03
2017-01-09T02:16:08.623Z,13.03
2017-01-09T02:17:08.555Z,12.93
2017-01-09T02:18:08.495Z,13.03
2017-01-09T02:19:08.435Z,13.03
2017-01-09T02:20:08.372Z,13.03
2017-01-09T02:21:08.310Z,13.03
2017-01-09T02:22:08.246Z,13.03
2017-01-09T02:23:08.186Z,13.03
2017-01-09T02:24:08.125Z,13.13
2017-01-09T02:25:08.061Z,13.13
2017-01-09T02:26:07.998Z,13.03
2017-01-09T02:27:07.939Z,13.03
2017-01-09T02:28:07.873Z,13.03
2017-01-09T02:29:07.820Z,13.23
2017-01-09T02:30:07.749Z,13.13
2017-01-09T02:31:07.692Z,13.23
2017-01-09T02:32:07.629Z,13.13
2017-01-09T02:33:07.563Z,13.03
2017-01-09T02:34:07.896Z,12.93
2017-01-09T02:35:07.442Z,13.03
2017-01-09T02:36:07.378Z,13.03
2017-01-09T02:37:07.316Z,12.93
2017-01-09T02:38:07.267Z,13.23
2017-01-09T02:39:07.194Z,13.13
2017-01-09T02:40:07.148Z,13.23
2017-01-09T02:41:07.070Z,13.23
2017-01-09T02:42:07.010Z,13.32
2017-01-09T02:43:07.152Z,12.93
2017-01-09T02:44:06.882Z,13.23
2017-01-09T02:45:06.821Z,13.23
2017-01-09T02:46:06.762Z,13.32
2017-01-09T02:47:06.698Z,13.13
2017-01-09T02:48:06.636Z,13.23
2017-01-09T02:49:06.573Z,13.23
2017-01-09T02:50:06.512Z,13.23
2017-01-09T02:51:06.450Z,13.23
2017-01-09T02:52:06.387Z,13.13
2017-01-09T02:53:06.331Z,13.23
2017-01-09T02:54:06.262Z,13.23
2017-01-09T02:55:06.203Z,13.23
2017-01-09T02:56:06.150Z,13.23
2017-01-09T02:57:06.076Z,13.23
2017-01-09T02:58:06.013Z,13.13
2017-01-09T02:59:05.955Z,13.23
2017-01-09T03:00:05.891Z,13.13
2017-01-09T03:01:05.838Z,13.32
2017-01-09T03:02:05.766Z,13.23
2017-01-09T03:03:05.707Z,13.13
2017-01-09T03:04:05.643Z,13.23
2017-01-09T03:05:05.580Z,13.32
2017-01-09T03:06:05.518Z,13.23
2017-01-09T03:07:05.457Z,13.23
2017-01-09T03:08:05.394Z,13.23
2017-01-09T03:09:05.333Z,13.23
2017-01-09T03:10:05.269Z,13.23
2017-01-09T03:11:05.208Z,13.32
2017-01-09T03:12:05.146Z,13.23
2017-01-09T03:13:05.084Z,13.32
2017-01-09T03:14:05.022Z,13.23
2017-01-09T03:15:04.965Z,13.23
2017-01-09T03:16:04.898Z,13.32
2017-01-09T03:17:04.834Z,13.23
2017-01-09T03:18:04.775Z,13.23
2017-01-09T03:19:04.713Z,13.23
2017-01-09T03:20:04.648Z,13.23
2017-01-09T03:21:04.587Z,13.23
2017-01-09T03:22:04.529Z,13.32
2017-01-09T03:23:04.464Z,13.32
2017-01-09T03:24:04.403Z,13.23
2017-01-09T03:25:04.340Z,13.32
2017-01-09T03:26:04.279Z,13.23
2017-01-09T03:27:04.216Z,13.32
2017-01-09T03:28:04.154Z,13.32
2017-01-09T03:29:04.092Z,13.32
2017-01-09T03:30:04.032Z,13.32
2017-01-09T03:31:03.969Z,13.23
2017-01-09T03:32:03.905Z,13.32
2017-01-09T03:33:03.843Z,13.32
2017-01-09T03:34:03.784Z,13.32
2017-01-09T03:35:03.719Z,13.61
2017-01-09T03:36:03.660Z,13.51
2017-01-09T03:37:03.600Z,13.32
2017-01-09T03:38:03.537Z,13.51
2017-01-09T03:39:03.471Z,13.61
2017-01-09T03:40:03.413Z,13.61
2017-01-09T03:41:03.349Z,13.32
2017-01-09T03:42:03.289Z,13.32
2017-01-09T03:43:03.233Z,13.51
2017-01-09T03:44:03.166Z,13.51
2017-01-09T03:45:03.100Z,13.51
2017-01-09T03:46:03.039Z,13.32
2017-01-09T03:47:02.983Z,13.61
2017-01-09T03:48:02.915Z,13.51
2017-01-09T03:49:02.853Z,13.61
2017-01-09T03:50:02.792Z,13.61
2017-01-09T03:51:02.740Z,13.61
2017-01-09T03:52:02.667Z,13.51
2017-01-09T03:53:02.997Z,13.61
2017-01-09T03:54:02.544Z,13.61
2017-01-09T03:55:02.482Z,13.61
2017-01-09T03:56:02.420Z,13.61
2017-01-09T03:57:02.380Z,13.61
2017-01-09T03:58:02.297Z,13.51
2017-01-09T03:59:02.234Z,13.32
2017-01-09T04:00:02.174Z,13.42
2017-01-09T04:01:02.112Z,13.32
2017-01-09T04:02:02.052Z,13.32
2017-01-09T04:03:01.988Z,13.32
2017-01-09T04:04:01.937Z,13.61
2017-01-09T04:05:01.868Z,13.51
2017-01-09T04:06:01.815Z,13.42
2017-01-09T04:07:01.739Z,13.42
2017-01-09T04:08:01.678Z,13.32
2017-01-09T04:09:01.617Z,13.42
2017-01-09T04:10:01.563Z,13.32
2017-01-09T04:11:01.496Z,13.51
2017-01-09T04:12:01.431Z,13.32
2017-01-09T04:13:01.371Z,13.42
2017-01-09T04:14:01.308Z,13.32
2017-01-09T04:15:01.250Z,13.51
2017-01-09T04:16:01.193Z,13.23
2017-01-09T04:17:01.125Z,13.23
2017-01-09T04:18:01.059Z,13.32
2017-01-09T04:19:01.000Z,13.32
2017-01-09T04:20:00.940Z,13.42
2017-01-09T04:21:00.875Z,13.71
2017-01-09T04:22:00.813Z,13.42
2017-01-09T04:23:00.752Z,13.42
2017-01-09T04:24:00.690Z,13.32
2017-01-09T04:25:00.629Z,13.32
2017-01-09T04:26:00.570Z,13.71
2017-01-09T04:27:00.505Z,13.32
2017-01-09T04:28:00.443Z,13.32
2017-01-09T04:29:00.382Z,13.51
2017-01-09T04:30:00.318Z,13.61
2017-01-09T04:31:00.258Z,13.33
2017-01-09T04:32:00.193Z,13.32
2017-01-09T04:33:00.131Z,13.23
2017-01-09T04:34:00.075Z,13.23
2017-01-09T04:35:00.011Z,13.32
2017-01-09T04:35:59.957Z,13.13
2017-01-09T04:36:59.887Z,13.32
2017-01-09T04:38:00.247Z,13.13
2017-01-09T04:38:59.763Z,13.23
2017-01-09T04:39:59.700Z,13.23
2017-01-09T04:40:59.639Z,13.13
2017-01-09T04:41:59.579Z,13.03
2017-01-09T04:42:59.515Z,12.93
2017-01-09T04:43:59.454Z,13.03
2017-01-09T04:44:59.392Z,13.03
2017-01-09T04:45:59.331Z,13.03
2017-01-09T04:46:59.280Z,13.13
2017-01-09T04:47:59.208Z,12.94
2017-01-09T04:48:59.148Z,13.03
2017-01-09T04:49:59.081Z,13.23
2017-01-09T04:50:59.020Z,13.23
2017-01-09T04:51:58.958Z,13.13
2017-01-09T04:52:58.900Z,13.13
2017-01-09T04:53:58.835Z,13.42
2017-01-09T04:54:58.771Z,13.42
2017-01-09T04:55:58.711Z,13.13
2017-01-09T04:56:58.650Z,13.03
2017-01-09T04:57:58.589Z,13.13
2017-01-09T04:58:58.526Z,13.13
2017-01-09T04:59:58.464Z,13.04
2017-01-09T05:00:58.404Z,13.13
2017-01-09T05:01:58.354Z,13.23
2017-01-09T05:02:58.276Z,13.23
2017-01-09T05:03:58.219Z,12.93
2017-01-09T05:04:58.153Z,13.42
2017-01-09T05:05:58.093Z,13.51
2017-01-09T05:06:58.066Z,13.23
2017-01-09T05:07:57.967Z,12.93
2017-01-09T05:08:57.906Z,13.03
2017-01-09T05:09:57.843Z,13.23
2017-01-09T05:10:57.783Z,13.42
2017-01-09T05:11:57.722Z,13.13
2017-01-09T05:12:57.685Z,12.84
2017-01-09T05:13:57.595Z,12.93
2017-01-09T05:14:57.536Z,12.74
2017-01-09T05:15:57.473Z,12.84
2017-01-09T05:16:57.408Z,12.93
2017-01-09T05:17:57.348Z,12.84
2017-01-09T05:18:57.288Z,12.55
2017-01-09T05:19:57.225Z,12.84
2017-01-09T05:20:57.162Z,12.84
2017-01-09T05:21:57.102Z,12.74
2017-01-09T05:22:57.040Z,12.84
2017-01-09T05:23:57.368Z,12.84
2017-01-09T05:24:56.914Z,12.74
2017-01-09T05:25:56.856Z,12.93
2017-01-09T05:26:56.800Z,13.03
2017-01-09T05:27:56.730Z,12.74
2017-01-09T05:28:56.667Z,12.74
2017-01-09T05:29:56.607Z,12.74
2017-01-09T05:30:56.541Z,12.84
2017-01-09T05:31:56.479Z,12.93
2017-01-09T05:32:56.417Z,12.74
2017-01-09T05:33:56.355Z,12.84
2017-01-09T05:34:56.292Z,12.74
2017-01-09T05:35:56.625Z,12.74
2017-01-09T05:36:56.563Z,12.65
2017-01-09T05:37:56.110Z,12.74
2017-01-09T05:38:56.045Z,12.74
2017-01-09T05:39:55.984Z,12.93
2017-01-09T05:40:55.928Z,12.84
2017-01-09T05:41:55.859Z,12.84
2017-01-09T05:42:55.796Z,12.93
2017-01-09T05:43:55.738Z,12.74
2017-01-09T05:44:55.674Z,12.93
2017-01-09T05:45:55.611Z,12.84
2017-01-09T05:46:55.552Z,12.84
2017-01-09T05:47:55.488Z,12.84
2017-01-09T05:48:55.426Z,12.84
2017-01-09T05:49:55.364Z,12.84
2017-01-09T05:50:55.299Z,12.74
2017-01-09T05:51:55.241Z,12.84
2017-01-09T05:52:55.176Z,12.84
2017-01-09T05:53:55.124Z,12.74
2017-01-09T05:54:55.052Z,12.93
2017-01-09T05:55:55.385Z,12.84
2017-01-09T05:56:54.928Z,12.93
2017-01-09T05:57:54.867Z,12.84
2017-01-09T05:58:54.803Z,12.74
2017-01-09T05:59:54.740Z,12.93
2017-01-09T06:00:54.679Z,12.74
2017-01-09T06:01:54.636Z,12.84
2017-01-09T06:02:54.554Z,12.84
2017-01-09T06:03:54.500Z,12.93
2017-01-09T06:04:54.433Z,12.74
2017-01-09T06:05:54.368Z,12.84
2017-01-09T06:06:54.304Z,12.84
2017-01-09T06:07:54.244Z,12.84
2017-01-09T06:08:54.181Z,12.93
2017-01-09T06:09:54.119Z,12.74
2017-01-09T06:10:54.055Z,12.93
2017-01-09T06:11:53.995Z,12.74
2017-01-09T06:12:53.935Z,12.84
2017-01-09T06:13:53.870Z,13.13
2017-01-09T06:14:53.817Z,12.84
2017-01-09T06:15:53.749Z,12.74
2017-01-09T06:16:53.687Z,12.84
2017-01-09T06:17:53.621Z,12.84
2017-01-09T06:18:53.558Z,12.84
2017-01-09T06:19:53.498Z,12.84
2017-01-09T06:20:53.436Z,12.93
2017-01-09T06:21:53.375Z,12.84
2017-01-09T06:22:53.310Z,12.93
2017-01-09T06:23:53.250Z,12.84
2017-01-09T06:24:53.196Z,12.93
2017-01-09T06:25:53.125Z,13.03
2017-01-09T06:26:53.064Z,12.74
2017-01-09T06:27:53.001Z,12.93
2017-01-09T06:28:52.945Z,12.74
2017-01-09T06:29:52.875Z,12.84
2017-01-09T06:30:52.824Z,12.84
2017-01-09T06:31:52.749Z,12.93
2017-01-09T06:32:52.688Z,13.03
2017-01-09T06:33:52.629Z,12.74
2017-01-09T06:34:52.564Z,12.74
2017-01-09T06:35:52.502Z,12.93
2017-01-09T06:36:52.439Z,12.74
2017-01-09T06:37:52.379Z,12.84
2017-01-09T06:38:52.316Z,12.84
2017-01-09T06:39:52.255Z,12.93
2017-01-09T06:40:52.190Z,12.84
2017-01-09T06:41:52.134Z,12.93
2017-01-09T06:42:52.069Z,13.03
2017-01-09T06:43:52.012Z,13.13
2017-01-09T06:44:51.946Z,12.84
2017-01-09T06:45:51.879Z,12.74
2017-01-09T06:46:51.818Z,12.93
2017-01-09T06:47:51.764Z,12.65
2017-01-09T06:48:51.692Z,12.84
2017-01-09T06:49:51.632Z,12.84
2017-01-09T06:50:51.566Z,12.74
2017-01-09T06:51:51.505Z,12.84
2017-01-09T06:52:51.444Z,13.03
2017-01-09T06:53:51.382Z,12.74
2017-01-09T06:54:51.319Z,12.55
2017-01-09T06:55:51.256Z,12.93
2017-01-09T06:56:51.194Z,12.84
2017-01-09T06:57:51.130Z,13.03
2017-01-09T06:58:51.069Z,13.03
2017-01-09T06:59:51.017Z,12.93
2017-01-09T07:00:50.945Z,13.13
2017-01-09T07:01:50.885Z,13.61
2017-01-09T07:02:50.818Z,13.23
2017-01-09T07:03:50.760Z,13.13
2017-01-09T07:04:51.087Z,12.84
2017-01-09T07:05:50.635Z,13.13
2017-01-09T07:06:50.572Z,13.13
2017-01-09T07:07:50.510Z,13.03
2017-01-09T07:08:50.450Z,13.23
2017-01-09T07:09:50.384Z,12.93
2017-01-09T07:10:50.322Z,13.23
2017-01-09T07:11:50.259Z,13.23
2017-01-09T07:12:50.195Z,13.23
2017-01-09T07:13:50.151Z,13.23
2017-01-09T07:14:50.073Z,13.23
2017-01-09T07:15:50.011Z,13.32
2017-01-09T07:16:49.953Z,13.32
2017-01-09T07:17:49.893Z,13.42
2017-01-09T07:18:49.824Z,13.13
2017-01-09T07:19:49.762Z,13.42
2017-01-09T07:20:49.701Z,13.13
2017-01-09T07:21:49.638Z,13.13
2017-01-09T07:22:49.593Z,13.42
2017-01-09T07:23:49.520Z,13.13
2017-01-09T07:24:49.453Z,12.93
2017-01-09T07:25:49.392Z,13.03
2017-01-09T07:26:49.330Z,13.23
2017-01-09T07:27:49.268Z,13.32
2017-01-09T07:28:49.202Z,13.23
2017-01-09T07:29:49.142Z,13.03
2017-01-09T07:30:49.079Z,13.23
2017-01-09T07:31:49.021Z,13.03
2017-01-09T07:32:48.956Z,13.03
2017-01-09T07:33:48.897Z,12.93
2017-01-09T07:34:48.835Z,13.42
2017-01-09T07:35:48.769Z,13.23
2017-01-09T07:36:48.717Z,13.51
2017-01-09T07:37:48.649Z,13.23
2017-01-09T07:38:48.584Z,13.03
2017-01-09T07:39:48.537Z,13.03
2017-01-09T07:40:48.463Z,13.03
2017-01-09T07:41:48.401Z,13.32
2017-01-09T07:42:48.338Z,13.23
2017-01-09T07:43:48.280Z,13.03
2017-01-09T07:44:48.214Z,13.42
2017-01-09T07:45:48.152Z,13.03
2017-01-09T07:46:48.091Z,13.13
2017-01-09T07:47:48.041Z,13.03
2017-01-09T07:48:47.965Z,13.13
2017-01-09T07:49:47.905Z,13.13
2017-01-09T07:50:47.843Z,13.03
2017-01-09T07:51:47.783Z,13.13
2017-01-09T07:52:47.784Z,13.03
2017-01-09T07:53:47.669Z,13.03
2017-01-09T07:54:47.597Z,13.03
2017-01-09T07:55:47.531Z,13.42
2017-01-09T07:56:47.478Z,13.32
2017-01-09T07:57:47.409Z,13.03
2017-01-09T07:58:47.347Z,13.23
2017-01-09T07:59:47.288Z,13.03
2017-01-09T08:00:47.466Z,13.32
2017-01-09T08:01:47.161Z,13.04
2017-01-09T08:02:47.104Z,13.13
2017-01-09T08:03:47.041Z,13.04
2017-01-09T08:04:46.977Z,13.03
2017-01-09T08:05:46.921Z,13.13
2017-01-09T08:06:46.854Z,13.03
2017-01-09T08:07:46.800Z,13.32
2017-01-09T08:08:46.732Z,13.13
2017-01-09T08:09:46.669Z,13.51
2017-01-09T08:10:46.611Z,13.13
2017-01-09T08:11:46.551Z,13.23
2017-01-09T08:12:46.486Z,13.23
2017-01-09T08:13:46.423Z,13.13
2017-01-09T08:14:46.381Z,13.03
2017-01-09T08:15:46.294Z,13.13
2017-01-09T08:16:46.234Z,13.13
2017-01-09T08:17:46.173Z,13.04
2017-01-09T08:18:46.120Z,13.03
2017-01-09T08:19:46.048Z,13.03
2017-01-09T08:20:45.989Z,13.03
2017-01-09T08:21:45.928Z,13.03
2017-01-09T08:22:45.871Z,13.04
2017-01-09T08:23:45.801Z,13.13
2017-01-09T08:24:45.740Z,13.13
2017-01-09T08:25:45.676Z,13.04
2017-01-09T08:26:45.613Z,13.03
2017-01-09T08:27:45.576Z,13.13
2017-01-09T08:28:45.489Z,13.03
2017-01-09T08:29:45.430Z,13.13
2017-01-09T08:30:45.767Z,13.03
2017-01-09T08:31:45.306Z,13.03
2017-01-09T08:32:45.245Z,13.03
2017-01-09T08:33:45.186Z,13.03
2017-01-09T08:34:45.126Z,13.13
2017-01-09T08:35:45.059Z,13.04
2017-01-09T08:36:45.002Z,13.03
2017-01-09T08:37:44.938Z,13.13
2017-01-09T08:38:44.873Z,13.13
2017-01-09T08:39:44.809Z,13.03
2017-01-09T08:41:44.685Z,13.04
2017-01-09T08:42:44.627Z,13.04
2017-01-09T08:43:44.563Z,13.13
2017-01-09T08:44:44.512Z,13.03
2017-01-09T08:45:44.446Z,13.03
2017-01-09T08:46:59.265Z,12.93
2017-01-09T08:47:44.317Z,13.04
2017-01-09T08:48:44.252Z,13.13
2017-01-09T08:49:44.192Z,12.93
2017-01-09T08:50:44.131Z,12.93
2017-01-09T08:51:44.065Z,13.03
2017-01-09T08:52:44.015Z,13.13
2017-01-09T08:53:43.944Z,13.03
2017-01-09T08:54:43.890Z,13.04
2017-01-09T08:55:43.820Z,13.03
2017-01-09T08:56:43.757Z,13.04
2017-01-09T08:57:43.697Z,13.03
2017-01-09T08:58:43.633Z,13.13
2017-01-09T08:59:43.571Z,13.03
2017-01-09T09:00:43.511Z,13.03
2017-01-09T09:01:43.449Z,13.13
2017-01-09T09:02:43.387Z,13.03
2017-01-09T09:03:43.324Z,13.03
2017-01-09T09:04:43.263Z,13.03
2017-01-09T09:05:43.200Z,13.03
2017-01-09T09:06:43.137Z,13.03
2017-01-09T09:07:43.079Z,13.03
2017-01-09T09:08:43.015Z,13.13
2017-01-09T09:09:42.977Z,13.13
2017-01-09T09:10:42.889Z,13.03
2017-01-09T09:11:42.841Z,13.13
2017-01-09T09:12:42.774Z,13.13
2017-01-09T09:13:42.703Z,13.13
2017-01-09T09:14:42.644Z,13.23
2017-01-09T09:15:42.580Z,13.03
2017-01-09T09:16:42.519Z,12.93
2017-01-09T09:17:42.454Z,13.03
2017-01-09T09:18:42.394Z,13.03
2017-01-09T09:19:42.331Z,13.13
2017-01-09T09:20:42.280Z,13.03
2017-01-09T09:21:42.209Z,13.13
2017-01-09T09:22:42.151Z,13.03
2017-01-09T09:23:42.099Z,13.03
2017-01-09T09:24:42.022Z,12.93
2017-01-09T09:25:41.959Z,13.13
2017-01-09T09:26:41.896Z,13.13
2017-01-09T09:27:41.839Z,13.03
2017-01-09T09:28:41.782Z,13.13
2017-01-09T09:29:42.115Z,13.03
2017-01-09T09:30:41.648Z,13.23
2017-01-09T09:31:41.587Z,13.23
2017-01-09T09:32:41.526Z,13.03
2017-01-09T09:33:41.483Z,13.03
2017-01-09T09:34:41.409Z,13.03
2017-01-09T09:35:41.360Z,13.03
2017-01-09T09:36:41.689Z,13.03
2017-01-09T09:37:41.229Z,13.13
2017-01-09T09:38:41.150Z,13.23
2017-01-09T09:39:41.102Z,13.13
2017-01-09T09:40:41.040Z,13.03
2017-01-09T09:41:40.974Z,12.93
2017-01-09T09:42:40.912Z,13.03
2017-01-09T09:43:40.842Z,13.13
2017-01-09T09:44:40.780Z,13.23
2017-01-09T09:45:40.732Z,13.03
2017-01-09T09:46:40.663Z,13.13
2017-01-09T09:47:40.602Z,12.93
2017-01-09T09:48:40.533Z,13.13
2017-01-09T09:49:40.467Z,13.13
2017-01-09T09:50:40.414Z,13.03
2017-01-09T09:51:40.344Z,13.13
2017-01-09T09:52:40.294Z,13.13
2017-01-09T09:53:40.222Z,12.93
2017-01-09T09:54:40.159Z,13.13
2017-01-09T09:55:40.097Z,13.03
2017-01-09T09:56:40.037Z,13.03
2017-01-09T09:57:39.975Z,13.13
2017-01-09T09:58:39.912Z,13.13
2017-01-09T09:59:39.848Z,13.03
2017-01-09T10:00:39.792Z,13.13
2017-01-09T10:01:39.723Z,13.03
2017-01-09T10:02:39.660Z,13.03
2017-01-09T10:03:39.604Z,13.03
2017-01-09T10:04:39.535Z,13.81
2017-01-09T10:05:39.475Z,13.71
2017-01-09T10:06:39.412Z,13.71
2017-01-09T10:07:39.349Z,13.71
2017-01-09T10:08:39.308Z,13.71
2017-01-09T10:09:39.227Z,13.81
2017-01-09T10:11:39.103Z,14.09
2017-01-09T10:12:39.041Z,14.19
2017-01-09T10:13:38.979Z,14.19
2017-01-09T10:14:38.917Z,14.58
2017-01-09T10:15:38.857Z,14.48
2017-01-09T10:16:38.793Z,14.67
2017-01-09T10:17:38.740Z,14.58
2017-01-09T10:18:38.667Z,14.87
2017-01-09T10:19:38.604Z,15.06
2017-01-09T10:20:38.542Z,15.06
2017-01-09T10:21:38.479Z,14.97
2017-01-09T10:22:38.419Z,14.97
2017-01-09T10:23:38.355Z,15.06
2017-01-09T10:24:38.294Z,15.45
2017-01-09T10:25:38.625Z,15.73
2017-01-09T10:26:38.351Z,15.64
2017-01-09T10:27:38.109Z,15.83
2017-01-09T10:28:38.048Z,15.73
2017-01-09T10:29:37.982Z,16.12
2017-01-09T10:30:37.934Z,16.03
2017-01-09T10:31:37.864Z,15.93
2017-01-09T10:32:37.798Z,15.93
2017-01-09T10:33:37.736Z,16.03
2017-01-09T10:34:37.683Z,16.41
2017-01-09T10:35:37.614Z,16.12
2017-01-09T10:36:37.552Z,16.61
2017-01-09T10:37:37.486Z,16.61
2017-01-09T10:38:37.425Z,16.89
2017-01-09T10:39:37.364Z,17.09
2017-01-09T10:40:37.303Z,16.8
2017-01-09T10:41:37.241Z,17.28
2017-01-09T10:42:37.177Z,17.28
2017-01-09T10:43:37.329Z,17.47
2017-01-09T10:44:37.051Z,17.28
2017-01-09T10:45:36.991Z,16.99
2017-01-09T10:46:37.329Z,16.99
2017-01-09T10:47:36.867Z,17.38
2017-01-09T10:48:36.804Z,17.76
2017-01-09T10:49:36.742Z,18.63
2017-01-09T10:50:36.684Z,18.54
2017-01-09T10:51:36.620Z,18.34
2017-01-09T10:52:36.561Z,18.44
2017-01-09T10:53:36.494Z,18.25
2017-01-09T10:54:36.432Z,18.25
2017-01-09T10:55:36.371Z,18.25
2017-01-09T10:56:36.313Z,18.25
2017-01-09T10:57:36.246Z,18.15
2017-01-09T10:58:36.185Z,18.25
2017-01-09T10:59:36.121Z,17.96
2017-01-09T11:00:36.062Z,18.05
2017-01-09T11:01:36.000Z,18.15
2017-01-09T11:02:36.324Z,18.15
2017-01-09T11:03:35.874Z,19.02
2017-01-09T11:04:35.811Z,19.02
2017-01-09T11:05:35.750Z,18.73
2017-01-09T11:06:35.691Z,18.15
2017-01-09T11:07:35.627Z,18.63
2017-01-09T11:08:35.565Z,17.76
2017-01-09T11:09:35.502Z,17.47
2017-01-09T11:10:35.443Z,16.99
2017-01-09T11:11:35.772Z,17.09
2017-01-09T11:12:35.318Z,17.47
2017-01-09T11:13:35.257Z,17.28
2017-01-09T11:14:35.192Z,17.28
2017-01-09T11:15:35.133Z,17.38
2017-01-09T11:16:35.069Z,16.8
2017-01-09T11:17:35.008Z,16.89
2017-01-09T11:18:34.944Z,16.8
2017-01-09T11:19:34.883Z,16.41
2017-01-09T11:20:34.825Z,16.61
2017-01-09T11:21:34.756Z,16.61
2017-01-09T11:22:34.701Z,16.61
2017-01-09T11:23:34.636Z,16.22
2017-01-09T11:24:34.572Z,16.51
2017-01-09T11:26:34.449Z,16.03
2017-01-09T11:27:34.774Z,16.22
2017-01-09T11:28:34.324Z,16.03
2017-01-09T11:29:34.261Z,16.12
2017-01-09T11:30:34.202Z,16.03
2017-01-09T11:31:34.139Z,16.12
2017-01-09T11:32:34.073Z,16.03
2017-01-09T11:33:34.017Z,16.12
2017-01-09T11:34:33.962Z,15.83
2017-01-09T11:35:33.887Z,15.73
2017-01-09T11:36:33.828Z,15.73
2017-01-09T11:37:34.161Z,15.73
2017-01-09T11:38:33.703Z,15.73
2017-01-09T11:39:33.640Z,15.73
2017-01-09T11:40:33.579Z,15.73
2017-01-09T11:41:33.513Z,15.93
2017-01-09T11:42:33.456Z,15.73
2017-01-09T11:43:33.390Z,15.45
2017-01-09T11:44:33.345Z,15.55
2017-01-09T11:45:33.267Z,15.55
2017-01-09T11:46:33.208Z,15.45
2017-01-09T11:47:33.143Z,15.64
2017-01-09T11:48:33.082Z,15.45
2017-01-09T11:49:33.018Z,15.55
2017-01-09T11:50:32.957Z,15.64
2017-01-09T11:51:32.894Z,15.73
2017-01-09T11:52:32.833Z,15.64
2017-01-09T11:53:32.771Z,15.35
2017-01-09T11:54:32.716Z,15.55
2017-01-09T11:55:32.653Z,15.45
2017-01-09T11:56:32.582Z,15.45
2017-01-09T11:57:32.517Z,15.45
2017-01-09T11:58:32.461Z,15.45
2017-01-09T11:59:32.394Z,15.25
2017-01-09T12:00:32.335Z,15.25
2017-01-09T12:01:32.270Z,15.16
2017-01-09T12:02:32.208Z,15.25
2017-01-09T12:03:32.150Z,15.55
2017-01-09T12:04:32.091Z,15.35
2017-01-09T12:05:32.023Z,15.64
2017-01-09T12:06:31.961Z,15.55
2017-01-09T12:07:31.901Z,15.73
2017-01-09T12:08:31.838Z,15.64
2017-01-09T12:09:31.773Z,15.55
2017-01-09T12:10:31.710Z,15.55
2017-01-09T12:11:31.649Z,15.55
2017-01-09T12:12:31.587Z,15.55
2017-01-09T12:13:31.529Z,15.73
2017-01-09T12:14:31.493Z,15.73
2017-01-09T12:15:31.415Z,15.83
2017-01-09T12:16:31.338Z,15.64
2017-01-09T12:17:31.275Z,15.93
2017-01-09T12:18:31.212Z,16.03
2017-01-09T12:19:31.152Z,16.12
2017-01-09T12:20:31.089Z,15.93
2017-01-09T12:21:31.031Z,16.03
2017-01-09T12:22:30.969Z,15.93
2017-01-09T12:23:30.904Z,16.22
2017-01-09T12:24:30.872Z,16.12
2017-01-09T12:25:30.779Z,16.22
2017-01-09T12:26:30.726Z,16.89
2017-01-09T12:27:30.660Z,16.89
2017-01-09T12:28:30.596Z,16.89
2017-01-09T12:29:30.531Z,16.8
2017-01-09T12:30:30.467Z,17.47
2017-01-09T12:31:30.542Z,17.09
2017-01-09T12:32:30.345Z,17.09
2017-01-09T12:33:30.286Z,17.28
2017-01-09T12:34:30.238Z,17.09
2017-01-09T12:35:30.160Z,16.99
2017-01-09T12:36:30.098Z,17.57
2017-01-09T12:37:30.036Z,17.09
2017-01-09T12:38:29.973Z,17.57
2017-01-09T12:39:29.920Z,17.28
2017-01-09T12:40:29.847Z,17.28
2017-01-09T12:41:29.785Z,17.57
2017-01-09T12:42:29.724Z,17.76
2017-01-09T12:43:29.663Z,17.67
2017-01-09T12:44:29.600Z,17.57
2017-01-09T12:45:29.539Z,17.76
2017-01-09T12:46:29.480Z,17.57
2017-01-09T12:47:29.415Z,18.15
2017-01-09T12:48:29.355Z,17.67
2017-01-09T12:49:29.290Z,17.96
2017-01-09T12:50:29.231Z,17.96
2017-01-09T12:51:29.166Z,17.76
2017-01-09T12:52:29.108Z,17.76
2017-01-09T12:53:29.046Z,17.76
2017-01-09T12:54:28.983Z,18.05
2017-01-09T12:55:28.925Z,17.57